createdAt,value
2023-01-29T00:01:18.372Z,101954.06
2023-01-29T00:05:28.529Z,101956.44
2023-01-29T00:09:31.839Z,101954.19
2023-01-29T00:13:34.726Z,101944.13
2023-01-29T00:17:36.305Z,101937.91
2023-01-29T00:21:37.945Z,101939.81
2023-01-29T00:25:39.509Z,101940.91
2023-01-29T00:29:41.652Z,101931.97
2023-01-29T00:33:43.379Z,101931.06
2023-01-29T00:37:45.054Z,101931.69
2023-01-29T00:42:05.003Z,101943.63
2023-01-29T00:46:06.640Z,101943.91
2023-01-29T00:50:11.457Z,101935.72
2023-01-29T00:54:13.050Z,101936.22
2023-01-29T00:58:15.576Z,101937.84
2023-01-29T01:02:36.329Z,101946.59
2023-01-29T01:06:40.071Z,101953.72
2023-01-29T01:10:41.662Z,101963.06
2023-01-29T01:14:44.509Z,101963.06
2023-01-29T01:18:48.411Z,101958.16
2023-01-29T01:22:50.115Z,101962.75
2023-01-29T01:26:51.861Z,101962.94
2023-01-29T01:30:53.701Z,101955.94
2023-01-29T01:34:55.629Z,101952.53
2023-01-29T01:38:57.415Z,101951.06
2023-01-29T01:43:00.413Z,101950.56
2023-01-29T01:47:02.154Z,101945.09
2023-01-29T01:51:06.424Z,101948.03
2023-01-29T01:55:11.369Z,101949.66
2023-01-29T01:59:16.652Z,101952.78
2023-01-29T02:03:38.890Z,101946.38
2023-01-29T02:08:02.188Z,101938.53
2023-01-29T02:12:07.188Z,101949.34
2023-01-29T02:16:08.740Z,101940.72
2023-01-29T02:20:42.203Z,101935.69
2023-01-29T02:24:59.718Z,101937.16
2023-01-29T02:29:27.161Z,101928.25
2023-01-29T02:33:41.099Z,101921.91
2023-01-29T02:37:54.226Z,101926.66
2023-01-29T02:42:11.626Z,101911.84
2023-01-29T02:46:37.837Z,101906.06
2023-01-29T02:50:51.207Z,101908.00
2023-01-29T02:55:02.997Z,101910.69
2023-01-29T02:59:18.414Z,101913.06
2023-01-29T03:03:50.601Z,101920.94
2023-01-29T03:08:01.417Z,101918.56
2023-01-29T03:12:29.033Z,101915.44
2023-01-29T03:16:40.988Z,101913.06
2023-01-29T03:20:51.798Z,101908.47
2023-01-29T03:25:16.966Z,101919.59
2023-01-29T03:29:40.664Z,101918.97
2023-01-29T03:34:06.698Z,101930.56
2023-01-29T03:38:11.323Z,101936.91
2023-01-29T03:42:27.290Z,101948.19
2023-01-29T03:46:36.261Z,101946.25
2023-01-29T03:50:43.734Z,101947.56
2023-01-29T03:55:10.574Z,101941.50
2023-01-29T03:59:20.523Z,101941.03
2023-01-29T04:03:53.871Z,101945.91
2023-01-29T04:08:04.212Z,101954.97
2023-01-29T04:12:09.700Z,101949.63
2023-01-29T04:16:25.201Z,101970.38
2023-01-29T04:21:00.348Z,101966.03
2023-01-29T04:25:09.703Z,101954.50
2023-01-29T04:29:39.420Z,101957.50
2023-01-29T04:33:45.267Z,101950.38
2023-01-29T04:37:53.106Z,101940.75
2023-01-29T04:42:07.185Z,101944.91
2023-01-29T04:46:25.207Z,101955.41
2023-01-29T04:50:52.173Z,101950.06
2023-01-29T04:55:20.189Z,101934.53
2023-01-29T05:00:01.112Z,101930.06
2023-01-29T05:04:07.443Z,101913.44
2023-01-29T05:08:13.372Z,101909.72
2023-01-29T05:12:17.540Z,101924.53
2023-01-29T05:16:27.664Z,101920.09
2023-01-29T05:20:33.191Z,101904.69
2023-01-29T05:24:35.935Z,101910.00
2023-01-29T05:28:37.659Z,101923.88
2023-01-29T05:32:39.759Z,101938.25
2023-01-29T05:36:41.475Z,101936.31
2023-01-29T05:40:43.691Z,101952.69
2023-01-29T05:44:45.222Z,101944.84
2023-01-29T05:48:46.799Z,101956.84
2023-01-29T05:52:48.327Z,101949.47
2023-01-29T05:56:49.942Z,101942.63
2023-01-29T06:00:51.523Z,101946.38
2023-01-29T06:04:53.032Z,101945.63
2023-01-29T06:08:56.016Z,101944.84
2023-01-29T06:12:57.561Z,101926.47
2023-01-29T06:16:59.361Z,101932.09
2023-01-29T06:21:02.587Z,101932.38
2023-01-29T06:25:04.636Z,101940.25
2023-01-29T06:29:06.233Z,101942.31
2023-01-29T06:33:07.763Z,101943.38
2023-01-29T06:37:09.415Z,101949.00
2023-01-29T06:41:12.511Z,101950.72
2023-01-29T06:45:14.213Z,101948.47
2023-01-29T06:49:15.867Z,101941.41
2023-01-29T06:53:20.815Z,101939.63
2023-01-29T06:57:22.953Z,101931.34
2023-01-29T07:01:35.641Z,101939.38
2023-01-29T07:05:37.993Z,101935.69
2023-01-29T07:09:43.416Z,101945.91
2023-01-29T07:13:45.133Z,101945.16
2023-01-29T07:18:00.042Z,101947.34
2023-01-29T07:22:03.163Z,101954.03
2023-01-29T07:26:06.076Z,101948.41
2023-01-29T07:30:08.307Z,101945.13
2023-01-29T07:34:09.864Z,101945.28
2023-01-29T07:38:11.849Z,101945.91
2023-01-29T07:42:13.435Z,101951.53
2023-01-29T07:46:15.146Z,101953.34
2023-01-29T07:50:17.124Z,101954.06
2023-01-29T07:54:18.933Z,101961.28
2023-01-29T07:58:20.473Z,101961.31
2023-01-29T08:02:22.206Z,101981.31
2023-01-29T08:06:23.807Z,101988.88
2023-01-29T08:10:25.682Z,101995.97
2023-01-29T08:14:27.976Z,101992.50
2023-01-29T08:18:29.564Z,101992.53
2023-01-29T08:22:31.106Z,102001.31
2023-01-29T08:26:32.985Z,101986.72
2023-01-29T08:30:35.181Z,101991.97
2023-01-29T08:34:36.763Z,101979.88
2023-01-29T08:38:38.474Z,101976.16
2023-01-29T08:42:41.350Z,101975.19
2023-01-29T08:46:42.917Z,101987.81
2023-01-29T08:50:44.458Z,101983.97
2023-01-29T08:54:46.005Z,102002.09
2023-01-29T08:58:47.602Z,102009.66
2023-01-29T09:02:49.264Z,102007.44
2023-01-29T09:06:50.938Z,101987.38
2023-01-29T09:10:52.480Z,101961.28
2023-01-29T09:14:54.054Z,101943.91
2023-01-29T09:18:55.582Z,101923.84
2023-01-29T09:22:59.030Z,101916.25
2023-01-29T09:27:01.098Z,101921.25
2023-01-29T09:31:03.204Z,101911.44
2023-01-29T09:35:05.804Z,101921.03
2023-01-29T09:39:07.496Z,101930.72
2023-01-29T09:43:26.331Z,101936.44
2023-01-29T09:47:29.756Z,101947.16
2023-01-29T09:51:37.764Z,101952.47
2023-01-29T09:55:51.371Z,101955.72
2023-01-29T09:59:52.996Z,101952.31
2023-01-29T10:04:14.603Z,101952.66
2023-01-29T10:08:37.631Z,101958.75
2023-01-29T10:12:52.679Z,101977.31
2023-01-29T10:17:09.239Z,101975.66
2023-01-29T10:21:38.837Z,101974.97
2023-01-29T10:25:42.116Z,101971.84
2023-01-29T10:29:46.895Z,101961.66
2023-01-29T10:34:02.187Z,101951.19
2023-01-29T10:38:21.292Z,101945.72
2023-01-29T10:42:26.481Z,101948.50
2023-01-29T10:47:18.912Z,101943.19
2023-01-29T10:51:38.843Z,101937.16
2023-01-29T10:56:21.890Z,101930.69
2023-01-29T11:00:30.485Z,101935.75
2023-01-29T11:04:34.148Z,101917.81
2023-01-29T11:09:00.618Z,101906.72
2023-01-29T11:13:04.242Z,101904.19
2023-01-29T11:17:05.836Z,101896.16
2023-01-29T11:21:07.462Z,101877.69
2023-01-29T11:25:17.655Z,101879.31
2023-01-29T11:29:45.164Z,101876.19
2023-01-29T11:33:47.132Z,101878.34
2023-01-29T11:37:49.385Z,101871.63
2023-01-29T11:42:02.752Z,101862.31
2023-01-29T11:46:13.369Z,101837.44
2023-01-29T11:50:27.159Z,101838.41
2023-01-29T11:54:34.181Z,101837.44
2023-01-29T11:58:36.347Z,101817.50
2023-01-29T12:02:54.351Z,101806.94
2023-01-29T12:06:55.970Z,101807.63
2023-01-29T12:11:11.558Z,101796.38
2023-01-29T12:15:19.709Z,101782.97
2023-01-29T12:19:57.828Z,101773.03
2023-01-29T12:24:31.492Z,101766.63
2023-01-29T12:28:55.165Z,101765.28
2023-01-29T12:33:14.857Z,101760.66
2023-01-29T12:37:25.760Z,101746.25
2023-01-29T12:41:37.744Z,101740.56
2023-01-29T12:45:41.339Z,101740.56
2023-01-29T12:49:45.159Z,101743.22
2023-01-29T12:53:59.361Z,101743.25
2023-01-29T12:58:09.623Z,101733.09
2023-01-29T13:02:22.170Z,101734.28
2023-01-29T13:06:30.214Z,101724.94
2023-01-29T13:10:37.699Z,101713.66
2023-01-29T13:14:48.746Z,101708.72
2023-01-29T13:19:05.000Z,101706.06
2023-01-29T13:23:19.816Z,101711.00
2023-01-29T13:27:25.916Z,101705.28
2023-01-29T13:31:31.765Z,101692.00
2023-01-29T13:35:34.949Z,101683.13
2023-01-29T13:39:48.574Z,101688.94
2023-01-29T13:43:50.422Z,101673.34
2023-01-29T13:47:53.047Z,101679.41
2023-01-29T13:51:54.861Z,101672.41
2023-01-29T13:56:29.971Z,101677.44
2023-01-29T14:00:34.640Z,101669.28
2023-01-29T14:04:36.317Z,101656.97
2023-01-29T14:08:41.543Z,101650.06
2023-01-29T14:12:44.011Z,101656.19
2023-01-29T14:16:46.039Z,101644.81
2023-01-29T14:20:47.549Z,101642.44
2023-01-29T14:24:53.757Z,101649.81
2023-01-29T14:29:04.433Z,101648.06
2023-01-29T14:33:06.802Z,101647.56
2023-01-29T14:37:14.299Z,101644.94
2023-01-29T14:41:27.133Z,101649.59
2023-01-29T14:45:30.570Z,101641.75
2023-01-29T14:49:51.756Z,101641.38
2023-01-29T14:54:00.411Z,101654.63
2023-01-29T14:58:03.556Z,101647.66
2023-01-29T15:02:18.278Z,101648.81
2023-01-29T15:06:41.013Z,101643.25
2023-01-29T15:11:12.483Z,101650.03
2023-01-29T15:15:37.449Z,101646.91
2023-01-29T15:19:46.065Z,101643.81
2023-01-29T15:23:48.981Z,101651.41
2023-01-29T15:27:50.662Z,101645.22
2023-01-29T15:31:52.561Z,101641.41
2023-01-29T15:36:08.417Z,101635.06
2023-01-29T15:40:16.713Z,101634.81
2023-01-29T15:44:22.844Z,101642.16
2023-01-29T15:48:32.960Z,101646.06
2023-01-29T15:52:35.293Z,101643.91
2023-01-29T15:56:39.832Z,101645.16
2023-01-29T16:00:55.456Z,101643.88
2023-01-29T16:04:57.215Z,101634.00
2023-01-29T16:08:59.860Z,101635.38
2023-01-29T16:13:03.021Z,101621.81
2023-01-29T16:17:23.048Z,101612.41
2023-01-29T16:21:36.428Z,101609.38
2023-01-29T16:25:38.917Z,101605.56
2023-01-29T16:29:40.780Z,101611.84
2023-01-29T16:33:45.353Z,101610.44
2023-01-29T16:37:50.604Z,101608.25
2023-01-29T16:42:22.243Z,101604.19
2023-01-29T16:46:26.875Z,101604.53
2023-01-29T16:50:36.296Z,101597.16
2023-01-29T16:54:43.060Z,101594.09
2023-01-29T16:58:50.662Z,101590.44
2023-01-29T17:03:05.686Z,101585.22
2023-01-29T17:07:17.125Z,101580.19
2023-01-29T17:11:26.513Z,101585.13
2023-01-29T17:15:42.988Z,101590.16
2023-01-29T17:19:44.586Z,101594.44
2023-01-29T17:23:46.376Z,101581.81
2023-01-29T17:27:51.761Z,101591.81
2023-01-29T17:31:53.390Z,101586.50
2023-01-29T17:35:55.006Z,101593.91
2023-01-29T17:39:56.597Z,101589.31
2023-01-29T17:43:58.251Z,101606.88
2023-01-29T17:47:59.896Z,101609.25
2023-01-29T17:52:01.868Z,101626.06
2023-01-29T17:56:03.622Z,101628.16
2023-01-29T18:00:13.794Z,101629.63
2023-01-29T18:04:15.725Z,101644.50
2023-01-29T18:08:33.506Z,101652.44
2023-01-29T18:12:35.097Z,101657.81
2023-01-29T18:16:37.513Z,101652.19
2023-01-29T18:20:42.019Z,101655.78
2023-01-29T18:24:43.733Z,101655.53
2023-01-29T18:28:45.362Z,101652.72
2023-01-29T18:32:47.575Z,101647.94
2023-01-29T18:36:50.158Z,101640.50
2023-01-29T18:40:51.712Z,101643.19
2023-01-29T18:44:53.321Z,101639.91
2023-01-29T18:48:54.963Z,101643.94
2023-01-29T18:52:56.844Z,101642.75
2023-01-29T18:57:13.031Z,101636.69
2023-01-29T19:01:16.724Z,101636.56
2023-01-29T19:05:21.432Z,101638.94
2023-01-29T19:09:22.996Z,101631.06
2023-01-29T19:13:26.317Z,101645.22
2023-01-29T19:17:28.176Z,101625.47
2023-01-29T19:21:30.407Z,101623.72
2023-01-29T19:25:31.949Z,101633.53
2023-01-29T19:29:34.334Z,101634.75
2023-01-29T19:33:35.958Z,101631.34
2023-01-29T19:37:37.657Z,101627.63
2023-01-29T19:41:39.293Z,101628.53
2023-01-29T19:45:49.654Z,101614.00
2023-01-29T19:49:52.220Z,101608.81
2023-01-29T19:53:53.807Z,101613.75
2023-01-29T19:57:57.058Z,101613.59
2023-01-29T20:01:58.671Z,101617.75
2023-01-29T20:06:05.571Z,101613.44
2023-01-29T20:10:09.783Z,101607.38
2023-01-29T20:14:11.493Z,101612.25
2023-01-29T20:18:14.185Z,101611.38
2023-01-29T20:22:15.743Z,101613.91
2023-01-29T20:26:18.467Z,101620.31
2023-01-29T20:30:20.414Z,101612.59
2023-01-29T20:34:22.301Z,101603.13
2023-01-29T20:38:25.549Z,101606.41
2023-01-29T20:42:27.190Z,101603.00
2023-01-29T20:46:28.856Z,101597.94
2023-01-29T20:50:30.461Z,101600.31
2023-01-29T20:54:33.237Z,101594.38
2023-01-29T20:58:35.841Z,101597.22
2023-01-29T21:02:37.401Z,101607.16
2023-01-29T21:06:38.989Z,101610.88
2023-01-29T21:10:43.095Z,101611.53
2023-01-29T21:14:45.980Z,101612.69
2023-01-29T21:18:47.589Z,101608.97
2023-01-29T21:22:49.149Z,101603.00
2023-01-29T21:26:50.890Z,101606.06
2023-01-29T21:31:02.979Z,101603.22
2023-01-29T21:35:04.978Z,101585.84
2023-01-29T21:39:16.641Z,101582.56
2023-01-29T21:43:18.357Z,101576.38
2023-01-29T21:47:22.125Z,101573.28
2023-01-29T21:51:23.779Z,101571.69
2023-01-29T21:55:25.369Z,101573.50
2023-01-29T21:59:27.059Z,101556.63
2023-01-29T22:03:28.696Z,101557.22
2023-01-29T22:07:30.409Z,101549.50
2023-01-29T22:11:32.058Z,101531.47
2023-01-29T22:15:33.624Z,101530.56
2023-01-29T22:19:35.314Z,101523.16
2023-01-29T22:23:36.918Z,101514.56
2023-01-29T22:27:38.546Z,101519.03
2023-01-29T22:31:40.340Z,101521.41
2023-01-29T22:35:41.988Z,101526.44
2023-01-29T22:39:43.622Z,101519.81
2023-01-29T22:43:45.167Z,101517.28
2023-01-29T22:47:46.761Z,101505.25
2023-01-29T22:51:48.461Z,101502.22
2023-01-29T22:55:55.480Z,101505.94
2023-01-29T22:59:57.037Z,101489.31
2023-01-29T23:03:58.633Z,101489.13
2023-01-29T23:08:00.227Z,101481.22
2023-01-29T23:12:01.789Z,101475.22
2023-01-29T23:16:03.446Z,101463.59
2023-01-29T23:20:05.646Z,101449.88
2023-01-29T23:24:08.060Z,101447.63
2023-01-29T23:28:09.675Z,101453.00
2023-01-29T23:32:14.204Z,101453.34
2023-01-29T23:36:16.451Z,101468.22
2023-01-29T23:40:18.340Z,101455.16
2023-01-29T23:44:20.674Z,101437.84
2023-01-29T23:48:22.765Z,101429.44
2023-01-29T23:52:24.315Z,101421.34
2023-01-29T23:56:26.173Z,101424.66
